createdAt,value
2017-09-15T00:00:02.941Z,96834.17
2017-09-15T00:00:34.745Z,96830.36
2017-09-15T00:01:06.465Z,96838.45
2017-09-15T00:01:38.141Z,96837.15
2017-09-15T00:02:09.797Z,96840.98
2017-09-15T00:02:41.460Z,96837.15
2017-09-15T00:03:13.105Z,96834.98
2017-09-15T00:03:44.753Z,96838.42
2017-09-15T00:04:16.409Z,96840.13
2017-09-15T00:04:48.299Z,96837.59
2017-09-15T00:05:19.949Z,96845.69
2017-09-15T00:05:51.597Z,96840.59
2017-09-15T00:06:23.281Z,96838.45
2017-09-15T00:06:54.926Z,96836.73
2017-09-15T00:07:26.580Z,96839.31
2017-09-15T00:07:58.457Z,96839.31
2017-09-15T00:08:30.294Z,96840.66
2017-09-15T00:09:02.048Z,96840.66
2017-09-15T00:09:33.998Z,96842.38
2017-09-15T00:10:05.689Z,96841.09
2017-09-15T00:10:37.341Z,96840.67
2017-09-15T00:11:09.110Z,96845.77
2017-09-15T00:11:40.873Z,96843.23
2017-09-15T00:12:12.521Z,96848.33
2017-09-15T00:12:44.166Z,96845.30
2017-09-15T00:13:15.818Z,96841.93
2017-09-15T00:13:47.473Z,96848.77
2017-09-15T00:14:19.121Z,96847.91
2017-09-15T00:14:50.770Z,96845.34
2017-09-15T00:15:22.424Z,96846.65
2017-09-15T00:15:54.069Z,96846.20
2017-09-15T00:16:25.765Z,96848.77
2017-09-15T00:16:57.409Z,96847.52
2017-09-15T00:17:29.058Z,96840.28
2017-09-15T00:18:00.701Z,96849.23
2017-09-15T00:18:32.349Z,96850.52
2017-09-15T00:19:03.994Z,96847.59
2017-09-15T00:19:35.637Z,96845.42
2017-09-15T00:20:07.286Z,96847.13
2017-09-15T00:20:38.934Z,96850.09
2017-09-15T00:21:10.825Z,96850.09
2017-09-15T00:21:42.482Z,96851.81
2017-09-15T00:22:14.128Z,96850.53
2017-09-15T00:22:45.774Z,96850.53
2017-09-15T00:23:17.422Z,96853.07
2017-09-15T00:23:49.069Z,96859.33
2017-09-15T00:24:20.717Z,96851.99
2017-09-15T00:24:52.361Z,96857.11
2017-09-15T00:25:24.010Z,96857.94
2017-09-15T00:25:55.818Z,96860.14
2017-09-15T00:26:28.381Z,96861.00
2017-09-15T00:27:00.083Z,96858.47
2017-09-15T00:27:31.733Z,96857.61
2017-09-15T00:28:03.378Z,96856.36
2017-09-15T00:28:35.256Z,96863.19
2017-09-15T00:29:07.135Z,96863.67
2017-09-15T00:29:38.781Z,96856.91
2017-09-15T00:30:10.430Z,96868.39
2017-09-15T00:30:42.131Z,96863.25
2017-09-15T00:31:13.781Z,96870.13
2017-09-15T00:31:45.429Z,96874.34
2017-09-15T00:32:17.350Z,96874.36
2017-09-15T00:32:49.057Z,96868.83
2017-09-15T00:33:20.705Z,96872.70
2017-09-15T00:33:52.350Z,96873.11
2017-09-15T00:34:23.997Z,96863.33
2017-09-15T00:34:55.767Z,96864.58
2017-09-15T00:35:27.522Z,96866.36
2017-09-15T00:35:59.472Z,96871.08
2017-09-15T00:36:31.121Z,96877.89
2017-09-15T00:37:02.764Z,96877.89
2017-09-15T00:37:34.461Z,96880.89
2017-09-15T00:38:06.348Z,96876.95
2017-09-15T00:38:37.997Z,96879.09
2017-09-15T00:39:09.645Z,96873.17
2017-09-15T00:39:41.289Z,96883.40
2017-09-15T00:40:12.942Z,96873.97
2017-09-15T00:40:44.609Z,96878.67
2017-09-15T00:41:16.253Z,96884.17
2017-09-15T00:41:47.901Z,96879.88
2017-09-15T00:42:19.746Z,96882.84
2017-09-15T00:42:51.690Z,96884.52
2017-09-15T00:43:23.380Z,96880.67
2017-09-15T00:43:55.036Z,96883.23
2017-09-15T00:44:26.685Z,96884.57
2017-09-15T00:44:58.334Z,96887.12
2017-09-15T00:45:29.977Z,96884.93
2017-09-15T00:46:01.621Z,96881.09
2017-09-15T00:46:33.273Z,96880.29
2017-09-15T00:47:04.912Z,96882.02
2017-09-15T00:47:36.562Z,96879.09
2017-09-15T00:48:08.454Z,96887.57
2017-09-15T00:48:40.414Z,96887.17
2017-09-15T00:49:12.250Z,96890.98
2017-09-15T00:49:44.004Z,96888.84
2017-09-15T00:50:15.653Z,96885.48
2017-09-15T00:50:47.309Z,96890.17
2017-09-15T00:51:18.953Z,96889.70
2017-09-15T00:51:50.602Z,96899.55
2017-09-15T00:52:22.249Z,96892.27
2017-09-15T00:52:53.901Z,96897.48
2017-09-15T00:53:25.805Z,96894.52
2017-09-15T00:53:57.449Z,96896.21
2017-09-15T00:54:29.100Z,96899.19
2017-09-15T00:55:00.749Z,96896.21
2017-09-15T00:55:32.400Z,96898.79
2017-09-15T00:56:04.046Z,96902.19
2017-09-15T00:56:35.964Z,96902.27
2017-09-15T00:57:07.613Z,96904.84
2017-09-15T00:57:39.257Z,96897.62
2017-09-15T00:58:10.909Z,96895.92
2017-09-15T00:58:42.554Z,96899.34
2017-09-15T00:59:14.201Z,96894.85
2017-09-15T00:59:45.845Z,96901.88
2017-09-15T01:00:17.493Z,96905.29
2017-09-15T01:00:49.141Z,96900.70
2017-09-15T01:01:20.785Z,96905.76
2017-09-15T01:01:52.663Z,96910.02
2017-09-15T01:02:24.331Z,96908.79
2017-09-15T01:02:55.982Z,96907.03
2017-09-15T01:03:27.633Z,96910.87
2017-09-15T01:03:59.285Z,96910.52
2017-09-15T01:04:30.929Z,96908.00
2017-09-15T01:05:02.577Z,96906.28
2017-09-15T01:05:34.222Z,96912.31
2017-09-15T01:06:05.865Z,96913.61
2017-09-15T01:06:37.513Z,96911.42
2017-09-15T01:07:09.415Z,96902.52
2017-09-15T01:07:41.366Z,96917.42
2017-09-15T01:08:13.195Z,96912.33
2017-09-15T01:08:44.852Z,96913.64
2017-09-15T01:09:16.529Z,96909.78
2017-09-15T01:09:48.174Z,96913.20
2017-09-15T01:10:19.822Z,96918.75
2017-09-15T01:10:51.465Z,96913.66
2017-09-15T01:11:23.472Z,96918.28
2017-09-15T01:11:55.121Z,96920.42
2017-09-15T01:12:26.766Z,96921.31
2017-09-15T01:12:58.417Z,96921.75
2017-09-15T01:13:30.065Z,96921.31
2017-09-15T01:14:02.296Z,96916.22
2017-09-15T01:14:34.441Z,96921.33
2017-09-15T01:15:06.195Z,96926.06
2017-09-15T01:15:37.845Z,96927.28
2017-09-15T01:16:09.489Z,96922.25
2017-09-15T01:16:41.181Z,96926.06
2017-09-15T01:17:12.962Z,96925.56
2017-09-15T01:17:44.711Z,96919.20
2017-09-15T01:18:16.362Z,96921.75
2017-09-15T01:18:48.006Z,96915.00
2017-09-15T01:19:19.653Z,96928.62
2017-09-15T01:19:51.511Z,96925.59
2017-09-15T01:20:23.162Z,96921.39
2017-09-15T01:20:54.813Z,96923.97
2017-09-15T01:21:26.465Z,96934.64
2017-09-15T01:21:58.109Z,96929.52
2017-09-15T01:22:29.760Z,96938.89
2017-09-15T01:23:01.437Z,96943.23
2017-09-15T01:23:33.090Z,96935.94
2017-09-15T01:24:04.738Z,96930.88
2017-09-15T01:24:36.381Z,96935.14
2017-09-15T01:25:08.270Z,96939.78
2017-09-15T01:25:39.954Z,96927.41
2017-09-15T01:26:11.606Z,96935.06
2017-09-15T01:26:43.249Z,96940.98
2017-09-15T01:27:14.897Z,96934.11
2017-09-15T01:27:46.541Z,96937.93
2017-09-15T01:28:18.189Z,96944.73
2017-09-15T01:28:49.853Z,96946.41
2017-09-15T01:29:21.501Z,96937.83
2017-09-15T01:29:53.145Z,96938.73
2017-09-15T01:30:24.849Z,96935.27
2017-09-15T01:30:56.497Z,96933.98
2017-09-15T01:31:28.141Z,96939.16
2017-09-15T01:31:59.789Z,96940.91
2017-09-15T01:32:31.437Z,96931.95
2017-09-15T01:33:03.089Z,96937.48
2017-09-15T01:33:34.892Z,96940.93
2017-09-15T01:34:06.542Z,96940.05
2017-09-15T01:34:38.189Z,96930.23
2017-09-15T01:35:09.837Z,96944.22
2017-09-15T01:35:41.484Z,96941.72
2017-09-15T01:36:13.125Z,96936.19
2017-09-15T01:36:44.769Z,96939.60
2017-09-15T01:37:16.414Z,96942.16
2017-09-15T01:37:48.061Z,96948.55
2017-09-15T01:38:19.705Z,96942.60
2017-09-15T01:38:51.364Z,96938.37
2017-09-15T01:39:23.009Z,96945.63
2017-09-15T01:39:54.877Z,96942.20
2017-09-15T01:40:26.570Z,96945.27
2017-09-15T01:40:58.225Z,96942.28
2017-09-15T01:41:29.869Z,96953.81
2017-09-15T01:42:01.554Z,96946.17
2017-09-15T01:42:33.394Z,96957.20
2017-09-15T01:43:05.056Z,96952.12
2017-09-15T01:43:36.709Z,96951.34
2017-09-15T01:44:08.396Z,96951.78
2017-09-15T01:44:40.050Z,96956.47
2017-09-15T01:45:11.934Z,96959.89
2017-09-15T01:45:43.759Z,96956.03
2017-09-15T01:46:15.524Z,96956.45
2017-09-15T01:46:47.201Z,96958.59
2017-09-15T01:47:18.849Z,96966.70
2017-09-15T01:47:50.493Z,96962.89
2017-09-15T01:48:22.399Z,96964.17
2017-09-15T01:48:54.052Z,96968.00
2017-09-15T01:49:25.705Z,96969.26
2017-09-15T01:49:57.393Z,96959.63
2017-09-15T01:50:29.273Z,96972.67
2017-09-15T01:51:00.928Z,96964.59
2017-09-15T01:51:33.678Z,96972.67
2017-09-15T01:52:05.382Z,96975.65
2017-09-15T01:52:37.034Z,96974.38
2017-09-15T01:53:08.689Z,96983.32
2017-09-15T01:53:40.341Z,96972.26
2017-09-15T01:54:12.559Z,96973.95
2017-09-15T01:54:44.205Z,96979.92
2017-09-15T01:55:15.853Z,96969.72
2017-09-15T01:55:47.537Z,96978.65
2017-09-15T01:56:19.185Z,96981.20
2017-09-15T01:56:50.829Z,96979.09
2017-09-15T01:57:22.522Z,96978.73
2017-09-15T01:57:54.411Z,96985.06
2017-09-15T01:58:26.247Z,96985.06
2017-09-15T01:58:58.132Z,96983.40
2017-09-15T01:59:30.091Z,96982.06
2017-09-15T02:00:01.754Z,96985.45
2017-09-15T02:00:33.542Z,96984.18
2017-09-15T02:01:05.193Z,96981.20
2017-09-15T02:01:36.848Z,96988.90
2017-09-15T02:02:08.497Z,96981.23
2017-09-15T02:02:40.141Z,96982.14
2017-09-15T02:03:11.781Z,96978.73
2017-09-15T02:03:43.426Z,96991.88
2017-09-15T02:04:15.086Z,96985.06
2017-09-15T02:04:46.733Z,96986.34
2017-09-15T02:05:18.377Z,97000.45
2017-09-15T02:05:50.201Z,96992.38
2017-09-15T02:06:21.854Z,96986.42
2017-09-15T02:06:53.505Z,96988.98
2017-09-15T02:07:25.149Z,96989.81
2017-09-15T02:07:56.837Z,96988.12
2017-09-15T02:08:28.489Z,96996.67
2017-09-15T02:09:00.137Z,96991.53
2017-09-15T02:09:31.786Z,96999.27
2017-09-15T02:10:03.676Z,97000.88
2017-09-15T02:10:38.732Z,96998.77
2017-09-15T02:11:10.945Z,97007.30
2017-09-15T02:11:42.627Z,97011.55
2017-09-15T02:12:14.317Z,97011.97
2017-09-15T02:12:45.965Z,97004.76
2017-09-15T02:13:17.863Z,97009.84
2017-09-15T02:13:49.811Z,97013.27
2017-09-15T02:14:21.762Z,97010.70
2017-09-15T02:14:53.415Z,96997.95
2017-09-15T02:15:25.061Z,96995.81
2017-09-15T02:15:56.705Z,97010.61
2017-09-15T02:16:28.345Z,97016.98
2017-09-15T02:17:00.045Z,97016.14
2017-09-15T02:17:31.689Z,97011.52
2017-09-15T02:18:03.562Z,97016.16
2017-09-15T02:18:35.214Z,97013.19
2017-09-15T02:19:06.857Z,97005.16
2017-09-15T02:19:38.501Z,97009.41
2017-09-15T02:20:10.149Z,97014.13
2017-09-15T02:20:41.793Z,97018.41
2017-09-15T02:21:13.438Z,97014.56
2017-09-15T02:21:45.090Z,97020.09
2017-09-15T02:22:16.733Z,97011.15
2017-09-15T02:22:48.379Z,97012.89
2017-09-15T02:23:20.025Z,97015.91
2017-09-15T02:23:51.673Z,97019.73
2017-09-15T02:24:23.572Z,97014.15
2017-09-15T02:24:55.222Z,97016.58
2017-09-15T02:25:27.099Z,97020.81
2017-09-15T02:25:58.749Z,97019.53
2017-09-15T02:26:30.446Z,97022.53
2017-09-15T02:27:02.287Z,97025.92
2017-09-15T02:27:34.037Z,97032.76
2017-09-15T02:28:05.987Z,97028.92
2017-09-15T02:28:37.637Z,97023.91
2017-09-15T02:29:09.281Z,97031.14
2017-09-15T02:29:42.138Z,97028.16
2017-09-15T02:30:16.066Z,97031.56
2017-09-15T02:30:48.804Z,97034.14
2017-09-15T02:31:20.727Z,97036.62
2017-09-15T02:31:52.965Z,97031.48
2017-09-15T02:32:25.572Z,97032.73
2017-09-15T02:32:57.414Z,97038.22
2017-09-15T02:33:29.074Z,97039.47
2017-09-15T02:34:00.717Z,97045.42
2017-09-15T02:34:32.366Z,97038.93
2017-09-15T02:35:04.014Z,97051.72
2017-09-15T02:35:35.665Z,97047.45
2017-09-15T02:36:07.513Z,97045.77
2017-09-15T02:36:39.162Z,97060.30
2017-09-15T02:37:10.810Z,97053.95
2017-09-15T02:37:42.457Z,97053.95
2017-09-15T02:38:15.786Z,97064.20
2017-09-15T02:38:48.025Z,97054.89
2017-09-15T02:39:19.681Z,97063.86
2017-09-15T02:39:51.876Z,97063.42
2017-09-15T02:40:23.525Z,97061.64
2017-09-15T02:40:55.177Z,97054.77
2017-09-15T02:41:27.171Z,97052.43
2017-09-15T02:41:59.121Z,97051.81
2017-09-15T02:42:30.790Z,97054.24
2017-09-15T02:43:02.525Z,97056.66
2017-09-15T02:43:34.174Z,97068.09
2017-09-15T02:44:05.818Z,97067.50
2017-09-15T02:44:37.462Z,97063.42
2017-09-15T02:45:09.109Z,97063.21
2017-09-15T02:45:40.757Z,97057.58
2017-09-15T02:46:12.404Z,97060.52
2017-09-15T02:46:44.057Z,97066.28
2017-09-15T02:47:15.850Z,97062.17
2017-09-15T02:47:47.498Z,97060.59
2017-09-15T02:48:19.438Z,97066.75
2017-09-15T02:48:51.387Z,97067.34
2017-09-15T02:49:24.259Z,97069.59
2017-09-15T02:49:56.164Z,97068.80
2017-09-15T02:50:27.814Z,97065.98
2017-09-15T02:50:59.490Z,97072.19
2017-09-15T02:51:31.141Z,97071.44
2017-09-15T02:52:02.797Z,97068.98
2017-09-15T02:52:34.665Z,97076.66
2017-09-15T02:53:06.366Z,97070.37
2017-09-15T02:53:38.319Z,97078.95
2017-09-15T02:54:09.969Z,97085.58
2017-09-15T02:54:41.654Z,97083.88
2017-09-15T02:55:13.548Z,97086.41
2017-09-15T02:55:45.197Z,97085.56
2017-09-15T02:56:17.078Z,97086.07
2017-09-15T02:56:48.729Z,97087.80
2017-09-15T02:57:20.373Z,97087.04
2017-09-15T02:57:52.018Z,97086.29
2017-09-15T02:58:23.673Z,97086.14
2017-09-15T02:58:55.325Z,97090.16
2017-09-15T02:59:26.989Z,97084.51
2017-09-15T02:59:58.658Z,97088.41
2017-09-15T03:00:30.305Z,97092.95
2017-09-15T03:01:01.947Z,97094.41
2017-09-15T03:01:33.839Z,97095.06
2017-09-15T03:02:05.546Z,97096.67
2017-09-15T03:02:37.193Z,97102.95
2017-09-15T03:03:08.840Z,97101.13
2017-09-15T03:03:40.490Z,97105.64
2017-09-15T03:04:12.133Z,97103.83
2017-09-15T03:04:43.786Z,97096.52
2017-09-15T03:05:15.436Z,97099.78
2017-09-15T03:05:47.089Z,97103.13
2017-09-15T03:06:18.949Z,97103.89
2017-09-15T03:06:50.797Z,97102.59
2017-09-15T03:07:22.445Z,97104.22
2017-09-15T03:07:54.094Z,97102.06
2017-09-15T03:08:25.737Z,97106.64
2017-09-15T03:08:57.385Z,97109.61
2017-09-15T03:09:29.029Z,97101.84
2017-09-15T03:10:00.673Z,97102.63
2017-09-15T03:10:32.358Z,97100.91
2017-09-15T03:11:04.034Z,97099.54
2017-09-15T03:11:35.696Z,97105.89
2017-09-15T03:12:07.384Z,97109.65
2017-09-15T03:12:39.033Z,97110.47
2017-09-15T03:13:10.908Z,97109.59
2017-09-15T03:13:42.557Z,97108.72
2017-09-15T03:14:14.206Z,97113.72
2017-09-15T03:14:46.141Z,97106.89
2017-09-15T03:15:17.789Z,97118.38
2017-09-15T03:15:49.437Z,97110.20
2017-09-15T03:16:21.102Z,97111.91
2017-09-15T03:16:52.749Z,97114.88
2017-09-15T03:17:24.402Z,97117.36
2017-09-15T03:17:56.049Z,97119.03
2017-09-15T03:18:27.697Z,97119.90
2017-09-15T03:18:59.345Z,97119.92
2017-09-15T03:19:31.186Z,97119.03
2017-09-15T03:20:02.889Z,97117.78
2017-09-15T03:20:34.533Z,97119.48
2017-09-15T03:21:06.177Z,97120.34
2017-09-15T03:21:37.829Z,97122.47
2017-09-15T03:22:09.477Z,97119.16
2017-09-15T03:22:41.134Z,97122.88
2017-09-15T03:23:12.781Z,97122.89
2017-09-15T03:23:44.623Z,97129.27
2017-09-15T03:24:16.618Z,97128.38
2017-09-15T03:24:48.273Z,97122.02
2017-09-15T03:25:19.958Z,97120.30
2017-09-15T03:25:51.606Z,97129.70
2017-09-15T03:26:23.491Z,97128.01
2017-09-15T03:26:55.441Z,97134.84
2017-09-15T03:27:27.089Z,97130.14
2017-09-15T03:27:58.789Z,97128.92
2017-09-15T03:28:30.561Z,97133.20
2017-09-15T03:29:02.316Z,97134.50
2017-09-15T03:29:33.965Z,97132.44
2017-09-15T03:30:05.618Z,97133.72
2017-09-15T03:30:37.547Z,97135.43
2017-09-15T03:31:09.198Z,97140.13
2017-09-15T03:31:42.814Z,97130.36
2017-09-15T03:32:14.757Z,97135.48
2017-09-15T03:32:48.225Z,97129.50
2017-09-15T03:33:20.753Z,97131.72
2017-09-15T03:33:52.729Z,97134.31
2017-09-15T03:34:24.377Z,97140.31
2017-09-15T03:34:56.029Z,97146.28
2017-09-15T03:35:27.673Z,97140.77
2017-09-15T03:35:59.317Z,97139.55
2017-09-15T03:36:30.961Z,97150.63
2017-09-15T03:37:02.606Z,97146.80
2017-09-15T03:37:34.245Z,97156.64
2017-09-15T03:38:05.889Z,97147.33
2017-09-15T03:38:37.529Z,97155.90
2017-09-15T03:39:09.179Z,97150.37
2017-09-15T03:39:40.825Z,97155.09
2017-09-15T03:40:12.473Z,97153.39
2017-09-15T03:40:44.122Z,97151.28
2017-09-15T03:41:15.765Z,97155.99
2017-09-15T03:41:47.414Z,97150.95
2017-09-15T03:42:19.202Z,97150.46
2017-09-15T03:42:50.849Z,97155.16
2017-09-15T03:43:22.493Z,97162.83
2017-09-15T03:43:54.193Z,97158.20
2017-09-15T03:44:25.841Z,97166.30
2017-09-15T03:44:57.717Z,97162.06
2017-09-15T03:45:29.370Z,97164.17
2017-09-15T03:46:01.025Z,97160.80
2017-09-15T03:46:32.677Z,97164.64
2017-09-15T03:47:04.321Z,97165.11
2017-09-15T03:47:35.965Z,97165.50
2017-09-15T03:48:07.605Z,97168.96
2017-09-15T03:48:39.250Z,97170.66
2017-09-15T03:49:11.149Z,97167.69
2017-09-15T03:49:43.108Z,97165.17
2017-09-15T03:50:14.757Z,97164.78
2017-09-15T03:50:46.411Z,97172.05
2017-09-15T03:51:18.052Z,97169.94
2017-09-15T03:51:49.701Z,97175.12
2017-09-15T03:52:21.345Z,97173.37
2017-09-15T03:52:52.989Z,97172.58
2017-09-15T03:53:24.638Z,97175.59
2017-09-15T03:53:56.281Z,97173.87
2017-09-15T03:54:28.133Z,97173.87
2017-09-15T03:54:59.779Z,97173.52
2017-09-15T03:55:31.433Z,97177.72
2017-09-15T03:56:04.011Z,97175.18
2017-09-15T03:56:36.249Z,97177.34
2017-09-15T03:57:08.752Z,97175.65
2017-09-15T03:57:40.502Z,97179.48
2017-09-15T03:58:12.156Z,97169.70
2017-09-15T03:58:43.803Z,97174.48
2017-09-15T03:59:15.450Z,97173.23
2017-09-15T03:59:47.634Z,97176.22
2017-09-15T04:00:19.281Z,97182.25
2017-09-15T04:00:50.925Z,97178.85
2017-09-15T04:01:22.581Z,97183.54
2017-09-15T04:01:54.229Z,97179.31
2017-09-15T04:02:25.891Z,97182.72
2017-09-15T04:02:57.541Z,97186.98
2017-09-15T04:03:29.185Z,97186.55
2017-09-15T04:04:01.080Z,97194.22
2017-09-15T04:04:33.212Z,97194.28
2017-09-15T04:05:05.025Z,97188.75
2017-09-15T04:05:36.901Z,97194.73
2017-09-15T04:06:08.550Z,97191.76
2017-09-15T04:06:41.485Z,97188.37
2017-09-15T04:07:13.137Z,97195.22
2017-09-15T04:07:44.791Z,97195.24
2017-09-15T04:08:18.054Z,97185.88
2017-09-15T04:08:50.099Z,97192.29
2017-09-15T04:09:21.846Z,97199.53
2017-09-15T04:09:54.062Z,97198.67
2017-09-15T04:10:26.214Z,97200.45
2017-09-15T04:10:57.870Z,97197.89
2017-09-15T04:11:29.898Z,97190.68
2017-09-15T04:12:01.549Z,97198.34
2017-09-15T04:12:36.023Z,97194.09
2017-09-15T04:13:07.693Z,97195.00
2017-09-15T04:13:39.552Z,97200.53
2017-09-15T04:14:11.593Z,97200.55
2017-09-15T04:14:43.237Z,97200.11
2017-09-15T04:15:15.097Z,97202.67
2017-09-15T04:15:46.770Z,97198.45
2017-09-15T04:16:19.027Z,97202.27
2017-09-15T04:16:51.283Z,97203.13
2017-09-15T04:17:23.829Z,97207.88
2017-09-15T04:17:55.489Z,97202.34
2017-09-15T04:18:27.742Z,97204.89
2017-09-15T04:18:59.587Z,97204.08
2017-09-15T04:19:31.337Z,97216.44
2017-09-15T04:20:03.313Z,97213.45
2017-09-15T04:20:35.235Z,97212.18
2017-09-15T04:21:07.130Z,97212.63
2017-09-15T04:21:38.773Z,97214.31
2017-09-15T04:22:10.421Z,97218.62
2017-09-15T04:22:42.065Z,97214.39
2017-09-15T04:23:13.713Z,97215.66
2017-09-15T04:23:45.394Z,97220.35
2017-09-15T04:24:17.082Z,97222.07
2017-09-15T04:24:48.734Z,97220.81
2017-09-15T04:25:20.382Z,97221.65
2017-09-15T04:25:52.267Z,97217.87
2017-09-15T04:26:23.917Z,97217.87
2017-09-15T04:26:55.565Z,97217.45
2017-09-15T04:27:27.213Z,97217.05
2017-09-15T04:27:58.856Z,97223.44
2017-09-15T04:28:30.553Z,97218.74
2017-09-15T04:29:02.431Z,97223.44
2017-09-15T04:29:34.077Z,97226.01
2017-09-15T04:30:05.721Z,97220.90
2017-09-15T04:30:37.369Z,97223.92
2017-09-15T04:31:09.014Z,97222.64
2017-09-15T04:31:40.662Z,97218.40
2017-09-15T04:32:12.305Z,97222.66
2017-09-15T04:32:43.949Z,97221.81
2017-09-15T04:33:15.593Z,97223.09
2017-09-15T04:33:47.512Z,97223.11
2017-09-15T04:34:19.166Z,97223.96
2017-09-15T04:34:50.810Z,97226.53
2017-09-15T04:35:22.461Z,97232.06
2017-09-15T04:35:54.110Z,97225.73
2017-09-15T04:36:25.757Z,97226.12
2017-09-15T04:36:57.609Z,97235.48
2017-09-15T04:37:29.257Z,97232.99
2017-09-15T04:38:00.953Z,97227.02
2017-09-15T04:38:32.779Z,97233.84
2017-09-15T04:39:04.544Z,97232.57
2017-09-15T04:39:36.201Z,97224.64
2017-09-15T04:40:08.027Z,97237.68
2017-09-15T04:40:39.730Z,97236.84
2017-09-15T04:41:11.416Z,97243.67
2017-09-15T04:41:43.244Z,97238.98
2017-09-15T04:42:14.941Z,97241.53
2017-09-15T04:42:46.594Z,97237.33
2017-09-15T04:43:18.259Z,97237.33
2017-09-15T04:43:49.945Z,97243.72
2017-09-15T04:44:21.593Z,97247.56
2017-09-15T04:44:53.249Z,97250.13
2017-09-15T04:45:24.889Z,97245.02
2017-09-15T04:45:56.533Z,97250.14
2017-09-15T04:46:28.181Z,97253.55
2017-09-15T04:46:59.851Z,97248.49
2017-09-15T04:47:31.735Z,97249.72
2017-09-15T04:48:03.576Z,97256.58
2017-09-15T04:48:35.238Z,97262.07
2017-09-15T04:49:06.893Z,97254.02
2017-09-15T04:49:38.596Z,97257.87
2017-09-15T04:50:10.494Z,97261.28
2017-09-15T04:50:42.149Z,97264.68
2017-09-15T04:51:13.802Z,97272.80
2017-09-15T04:51:45.454Z,97268.12
2017-09-15T04:52:17.147Z,97271.53
2017-09-15T04:52:48.793Z,97274.93
2017-09-15T04:53:20.437Z,97277.48
2017-09-15T04:53:52.361Z,97277.53
2017-09-15T04:54:24.208Z,97276.64
2017-09-15T04:54:55.881Z,97277.12
2017-09-15T04:55:27.789Z,97283.94
2017-09-15T04:55:59.543Z,97283.52
2017-09-15T04:56:31.200Z,97274.14
2017-09-15T04:57:03.050Z,97280.95
2017-09-15T04:57:34.698Z,97281.41
2017-09-15T04:58:06.349Z,97275.02
2017-09-15T04:58:37.994Z,97274.59
2017-09-15T04:59:09.698Z,97276.30
2017-09-15T04:59:41.651Z,97277.16
2017-09-15T05:00:13.302Z,97279.33
2017-09-15T05:00:44.945Z,97277.59
2017-09-15T05:01:16.597Z,97283.97
2017-09-15T05:01:48.442Z,97278.45
2017-09-15T05:02:20.093Z,97278.91
2017-09-15T05:02:51.745Z,97282.33
2017-09-15T05:03:23.416Z,97281.92
2017-09-15T05:03:55.280Z,97287.03
2017-09-15T05:04:26.967Z,97283.20
2017-09-15T05:04:58.617Z,97286.19
2017-09-15T05:05:30.269Z,97281.55
2017-09-15T05:06:01.986Z,97281.14
2017-09-15T05:06:33.639Z,97283.22
2017-09-15T05:07:05.337Z,97288.80
2017-09-15T05:07:37.119Z,97285.39
2017-09-15T05:08:08.773Z,97287.54
2017-09-15T05:08:40.429Z,97290.94
2017-09-15T05:09:12.074Z,97290.53
2017-09-15T05:09:43.725Z,97293.50
2017-09-15T05:10:15.411Z,97298.61
2017-09-15T05:10:47.061Z,97291.37
2017-09-15T05:11:19.001Z,97297.79
2017-09-15T05:11:50.650Z,97300.33
2017-09-15T05:12:22.293Z,97296.08
2017-09-15T05:12:54.002Z,97291.05
2017-09-15T05:13:25.876Z,97292.29
2017-09-15T05:13:57.526Z,97293.95
2017-09-15T05:14:29.192Z,97297.84
2017-09-15T05:15:01.111Z,97293.15
2017-09-15T05:15:32.970Z,97296.13
2017-09-15T05:16:04.617Z,97297.84
2017-09-15T05:16:36.337Z,97297.42
2017-09-15T05:17:08.169Z,97295.73
2017-09-15T05:17:39.938Z,97300.41
2017-09-15T05:18:11.593Z,97301.27
2017-09-15T05:18:43.237Z,97309.34
2017-09-15T05:19:14.882Z,97309.78
2017-09-15T05:19:46.530Z,97311.48
2017-09-15T05:20:18.174Z,97303.41
2017-09-15T05:20:49.829Z,97303.84
2017-09-15T05:21:21.485Z,97308.53
2017-09-15T05:21:53.187Z,97311.50
2017-09-15T05:22:24.840Z,97309.80
2017-09-15T05:22:56.482Z,97309.80
2017-09-15T05:23:28.218Z,97312.36
2017-09-15T05:23:59.861Z,97308.14
2017-09-15T05:24:31.501Z,97313.69
2017-09-15T05:25:03.173Z,97310.70
2017-09-15T05:25:35.042Z,97310.30
2017-09-15T05:26:06.818Z,97309.87
2017-09-15T05:26:38.470Z,97314.99
2017-09-15T05:27:10.126Z,97314.56
2017-09-15T05:27:41.990Z,97316.69
2017-09-15T05:28:13.692Z,97314.56
2017-09-15T05:28:45.557Z,97314.14
2017-09-15T05:29:17.285Z,97313.34
2017-09-15T05:29:48.937Z,97313.77
2017-09-15T05:30:20.585Z,97317.55
2017-09-15T05:30:52.234Z,97320.56
2017-09-15T05:31:23.994Z,97325.70
2017-09-15T05:31:55.802Z,97316.34
2017-09-15T05:32:27.454Z,97319.75
2017-09-15T05:32:59.102Z,97321.02
2017-09-15T05:33:30.750Z,97318.48
2017-09-15T05:34:02.394Z,97313.81
2017-09-15T05:34:34.046Z,97312.95
2017-09-15T05:35:05.761Z,97316.79
2017-09-15T05:35:37.601Z,97319.77
2017-09-15T05:36:09.551Z,97324.44
2017-09-15T05:36:42.054Z,97316.37
2017-09-15T05:37:13.700Z,97321.09
2017-09-15T05:37:45.350Z,97319.81
2017-09-15T05:38:17.039Z,97318.53
2017-09-15T05:38:48.902Z,97323.64
2017-09-15T05:39:20.553Z,97323.64
2017-09-15T05:39:52.222Z,97325.36
2017-09-15T05:40:23.873Z,97324.94
2017-09-15T05:40:55.550Z,97324.94
2017-09-15T05:41:27.396Z,97328.77
2017-09-15T05:41:59.055Z,97327.49
2017-09-15T05:42:30.701Z,97325.36
2017-09-15T05:43:02.349Z,97327.92
2017-09-15T05:43:34.305Z,97327.49
2017-09-15T05:44:06.021Z,97327.92
2017-09-15T05:44:38.281Z,97331.34
2017-09-15T05:45:09.969Z,97334.30
2017-09-15T05:45:41.617Z,97329.20
2017-09-15T05:46:13.321Z,97330.06
2017-09-15T05:46:44.970Z,97335.59
2017-09-15T05:47:16.613Z,97332.61
2017-09-15T05:47:48.257Z,97334.75
2017-09-15T05:48:20.079Z,97331.76
2017-09-15T05:48:51.729Z,97330.06
2017-09-15T05:49:23.374Z,97331.34
2017-09-15T05:49:55.017Z,97336.45
2017-09-15T05:50:26.803Z,97336.01
2017-09-15T05:50:58.595Z,97333.89
2017-09-15T05:51:30.545Z,97336.45
2017-09-15T05:52:02.205Z,97339.86
2017-09-15T05:52:33.853Z,97333.89
2017-09-15T05:53:05.714Z,97340.27
2017-09-15T05:53:37.726Z,97339.42
2017-09-15T05:54:09.697Z,97338.56
2017-09-15T05:54:41.349Z,97333.03
2017-09-15T05:55:12.997Z,97336.43
2017-09-15T05:55:44.649Z,97334.75
2017-09-15T05:56:16.301Z,97342.39
2017-09-15T05:56:48.192Z,97334.73
2017-09-15T05:57:20.077Z,97334.73
2017-09-15T05:57:51.725Z,97333.45
2017-09-15T05:58:23.384Z,97335.13
2017-09-15T05:58:55.118Z,97337.69
2017-09-15T05:59:26.778Z,97334.25
2017-09-15T05:59:58.657Z,97336.41
2017-09-15T06:00:30.607Z,97341.03
2017-09-15T06:01:02.257Z,97332.11
2017-09-15T06:01:33.902Z,97338.88
2017-09-15T06:02:05.546Z,97338.05
2017-09-15T06:02:37.197Z,97338.84
2017-09-15T06:03:08.838Z,97337.98
2017-09-15T06:03:40.533Z,97346.48
2017-09-15T06:04:12.361Z,97343.49
2017-09-15T06:04:44.005Z,97345.98
2017-09-15T06:05:15.653Z,97346.47
2017-09-15T06:05:47.335Z,97345.09
2017-09-15T06:06:18.989Z,97347.64
2017-09-15T06:06:51.454Z,97342.53
2017-09-15T06:07:23.492Z,97348.02
2017-09-15T06:07:55.396Z,97347.14
2017-09-15T06:08:27.517Z,97349.24
2017-09-15T06:08:59.177Z,97351.33
2017-09-15T06:09:30.829Z,97358.55
2017-09-15T06:10:02.473Z,97358.09
2017-09-15T06:10:34.118Z,97357.68
2017-09-15T06:11:05.902Z,97357.63
2017-09-15T06:11:37.593Z,97362.35
2017-09-15T06:12:09.242Z,97360.59
2017-09-15T06:12:40.893Z,97362.30